Accueil
METAR-TAF:

METAR-TAF

Aéroports :

Gibraltar, Gibraltar

Aéroport international de Gibraltar

latitude: 36-09N, longitude: 005-21W, altitude: 5 m

Observation

Le bulletin a été fait il y a 50 minutes, à 08:50 UTC
Vent 10 kt de est
Température 14°C
Humidité 88%
Pression 1028 hPa
Visibilité 10 km ou plus
Ciel couvert à une hauteur de 1200 ft

METAR: LXGB 240850Z 08010KT 9999 OVC012 14/12 Q1028 NOSIG

Heure: 10:40 (09:40 UTC)

Prévision

Le bulletin a été fait il y a 2 heures et 10 minutes, à 07:30 UTC
Prévision valable du 24 à 09 UTC au 24 à 18 UTC
Vent 10 kt de est
Visibilité 10 km ou plus
Nuages épars à une hauteur de 1000 ft
Nuages fragmentés à une hauteur de 1500 ft
Probabilité 40% :
Temporairement
du 24 à 09 UTC au 24 à 18 UTC
Quelques nuages à une hauteur de 1000 ft
Nuages épars à une hauteur de 1500 ft

TAF: LXGB 240730Z 2409/2418 08010KT 9999 SCT010 BKN015 PROB40 TEMPO 2409/2418 FEW010 SCT015

Observations et prévisions météorologiques de plus de 4000 aéroports (messages METAR et TAF).

Les stations disponibles sont représentées par des disques jaunes et rouges sur la carte.

Passer la souris dessus pour voir le nom de la station.

Cliquer dessus pour voir les observations et prévisions météorologiques.

Pour changer de carte: cliquez sur les boutons verts avec une croix noire pour zoomer, sur le bouton vert avec un tiret pour effectuer un zoom arrière, ou sur les flèches vertes pour les cartes adjacentes.


METAR-TAF: